sensor_id;sensor_type;location;lat;lon;timestamp;temperature;humidity
820;DHT22;392;48.838;2.322;2023-11-22T00:01:20;12.10;54.00
820;DHT22;392;48.838;2.322;2023-11-22T00:03:47;12.10;54.50
820;DHT22;392;48.838;2.322;2023-11-22T00:06:15;12.10;54.80
820;DHT22;392;48.838;2.322;2023-11-22T00:08:46;12.00;55.10
820;DHT22;392;48.838;2.322;2023-11-22T00:11:15;12.00;55.40
820;DHT22;392;48.838;2.322;2023-11-22T00:13:42;12.00;55.50
820;DHT22;392;48.838;2.322;2023-11-22T00:16:09;11.90;56.20
820;DHT22;392;48.838;2.322;2023-11-22T00:18:37;11.90;56.50
820;DHT22;392;48.838;2.322;2023-11-22T00:21:05;11.90;57.00
820;DHT22;392;48.838;2.322;2023-11-22T00:23:32;11.90;57.30
820;DHT22;392;48.838;2.322;2023-11-22T00:25:59;11.90;57.50
820;DHT22;392;48.838;2.322;2023-11-22T00:28:28;11.90;57.70
820;DHT22;392;48.838;2.322;2023-11-22T00:30:56;11.90;58.20
820;DHT22;392;48.838;2.322;2023-11-22T00:33:24;11.90;58.70
820;DHT22;392;48.838;2.322;2023-11-22T00:35:51;11.90;59.30
820;DHT22;392;48.838;2.322;2023-11-22T00:38:22;11.90;59.50
820;DHT22;392;48.838;2.322;2023-11-22T00:40:49;11.90;60.00
820;DHT22;392;48.838;2.322;2023-11-22T00:43:17;11.90;59.70
820;DHT22;392;48.838;2.322;2023-11-22T00:45:46;11.90;58.80
820;DHT22;392;48.838;2.322;2023-11-22T00:48:13;11.90;58.60
820;DHT22;392;48.838;2.322;2023-11-22T00:50:40;12.00;58.50
820;DHT22;392;48.838;2.322;2023-11-22T00:53:07;12.00;58.00
820;DHT22;392;48.838;2.322;2023-11-22T00:55:35;12.00;57.40
820;DHT22;392;48.838;2.322;2023-11-22T00:58:02;12.00;57.40
820;DHT22;392;48.838;2.322;2023-11-22T01:00:30;12.00;57.60
820;DHT22;392;48.838;2.322;2023-11-22T01:02:58;12.00;57.80
820;DHT22;392;48.838;2.322;2023-11-22T01:05:26;12.00;58.00
820;DHT22;392;48.838;2.322;2023-11-22T01:07:53;12.00;58.20
820;DHT22;392;48.838;2.322;2023-11-22T01:10:20;12.00;58.10
820;DHT22;392;48.838;2.322;2023-11-22T01:12:48;12.00;57.70
820;DHT22;392;48.838;2.322;2023-11-22T01:15:15;12.00;57.50
820;DHT22;392;48.838;2.322;2023-11-22T01:17:42;12.00;57.10
820;DHT22;392;48.838;2.322;2023-11-22T01:20:12;12.00;56.70
820;DHT22;392;48.838;2.322;2023-11-22T01:22:41;12.00;56.80
820;DHT22;392;48.838;2.322;2023-11-22T01:25:09;11.90;57.10
820;DHT22;392;48.838;2.322;2023-11-22T01:27:37;11.90;57.30
820;DHT22;392;48.838;2.322;2023-11-22T01:30:05;11.80;56.60
820;DHT22;392;48.838;2.322;2023-11-22T01:32:33;11.80;57.40
820;DHT22;392;48.838;2.322;2023-11-22T01:35:01;11.80;57.90
820;DHT22;392;48.838;2.322;2023-11-22T01:37:30;11.70;58.70
820;DHT22;392;48.838;2.322;2023-11-22T01:39:58;11.70;58.70
820;DHT22;392;48.838;2.322;2023-11-22T01:42:25;11.70;58.50
820;DHT22;392;48.838;2.322;2023-11-22T01:44:52;11.70;58.90
820;DHT22;392;48.838;2.322;2023-11-22T01:47:19;11.70;59.60
820;DHT22;392;48.838;2.322;2023-11-22T01:49:46;11.70;59.70
820;DHT22;392;48.838;2.322;2023-11-22T01:52:15;11.70;59.50
820;DHT22;392;48.838;2.322;2023-11-22T01:54:43;11.70;59.30
820;DHT22;392;48.838;2.322;2023-11-22T01:57:11;11.70;59.00
820;DHT22;392;48.838;2.322;2023-11-22T01:59:39;11.80;59.10
820;DHT22;392;48.838;2.322;2023-11-22T02:02:06;11.80;59.10
820;DHT22;392;48.838;2.322;2023-11-22T02:04:33;11.80;59.20
820;DHT22;392;48.838;2.322;2023-11-22T02:07:03;11.80;59.30
820;DHT22;392;48.838;2.322;2023-11-22T02:09:31;11.90;59.00
820;DHT22;392;48.838;2.322;2023-11-22T02:11:59;11.80;58.70
820;DHT22;392;48.838;2.322;2023-11-22T02:14:27;11.80;58.70
820;DHT22;392;48.838;2.322;2023-11-22T02:16:55;11.80;58.30
820;DHT22;392;48.838;2.322;2023-11-22T02:19:24;11.80;58.00
820;DHT22;392;48.838;2.322;2023-11-22T02:21:51;11.70;58.40
820;DHT22;392;48.838;2.322;2023-11-22T02:24:20;11.70;58.60
820;DHT22;392;48.838;2.322;2023-11-22T02:26:47;11.70;58.50
820;DHT22;392;48.838;2.322;2023-11-22T02:29:15;11.70;58.10
820;DHT22;392;48.838;2.322;2023-11-22T02:31:43;11.70;58.30
820;DHT22;392;48.838;2.322;2023-11-22T02:34:10;11.70;57.60
820;DHT22;392;48.838;2.322;2023-11-22T02:36:38;11.70;57.40
820;DHT22;392;48.838;2.322;2023-11-22T02:39:05;11.80;57.70
820;DHT22;392;48.838;2.322;2023-11-22T02:41:34;11.70;56.30
820;DHT22;392;48.838;2.322;2023-11-22T02:44:01;11.70;55.50
820;DHT22;392;48.838;2.322;2023-11-22T02:46:29;11.60;54.60
820;DHT22;392;48.838;2.322;2023-11-22T02:48:57;11.50;54.50
820;DHT22;392;48.838;2.322;2023-11-22T02:51:25;11.50;55.00
820;DHT22;392;48.838;2.322;2023-11-22T02:53:53;11.40;54.90
820;DHT22;392;48.838;2.322;2023-11-22T02:56:20;11.40;54.20
820;DHT22;392;48.838;2.322;2023-11-22T02:58:49;11.30;54.00
820;DHT22;392;48.838;2.322;2023-11-22T03:01:17;11.30;54.30
820;DHT22;392;48.838;2.322;2023-11-22T03:03:45;11.20;54.20
820;DHT22;392;48.838;2.322;2023-11-22T03:06:12;11.10;54.10
820;DHT22;392;48.838;2.322;2023-11-22T03:08:39;11.10;54.00
820;DHT22;392;48.838;2.322;2023-11-22T03:11:06;11.10;53.30
820;DHT22;392;48.838;2.322;2023-11-22T03:13:34;11.10;52.60
820;DHT22;392;48.838;2.322;2023-11-22T03:16:03;11.10;52.30
820;DHT22;392;48.838;2.322;2023-11-22T03:18:30;11.00;52.00
820;DHT22;392;48.838;2.322;2023-11-22T03:20:59;11.00;51.90
820;DHT22;392;48.838;2.322;2023-11-22T03:23:27;11.00;51.50
820;DHT22;392;48.838;2.322;2023-11-22T03:25:54;11.00;51.70
820;DHT22;392;48.838;2.322;2023-11-22T03:28:21;11.00;51.60
820;DHT22;392;48.838;2.322;2023-11-22T03:30:48;11.00;51.00
820;DHT22;392;48.838;2.322;2023-11-22T03:33:17;11.00;49.80
820;DHT22;392;48.838;2.322;2023-11-22T03:35:44;10.90;49.20
820;DHT22;392;48.838;2.322;2023-11-22T03:38:11;10.80;47.70
820;DHT22;392;48.838;2.322;2023-11-22T03:40:39;10.80;48.60
820;DHT22;392;48.838;2.322;2023-11-22T03:43:06;10.70;48.80
820;DHT22;392;48.838;2.322;2023-11-22T03:45:35;10.60;49.20
820;DHT22;392;48.838;2.322;2023-11-22T03:48:03;10.60;48.30
820;DHT22;392;48.838;2.322;2023-11-22T03:50:32;10.50;47.60
820;DHT22;392;48.838;2.322;2023-11-22T03:52:59;10.40;47.40
820;DHT22;392;48.838;2.322;2023-11-22T03:55:26;10.30;47.70
820;DHT22;392;48.838;2.322;2023-11-22T03:57:53;10.30;48.10
820;DHT22;392;48.838;2.322;2023-11-22T04:00:21;10.20;48.30
820;DHT22;392;48.838;2.322;2023-11-22T04:02:49;10.20;48.40
820;DHT22;392;48.838;2.322;2023-11-22T04:05:17;10.20;48.10
820;DHT22;392;48.838;2.322;2023-11-22T04:07:46;10.10;47.30
820;DHT22;392;48.838;2.322;2023-11-22T04:10:15;10.00;46.60
820;DHT22;392;48.838;2.322;2023-11-22T04:12:42;10.00;47.10
820;DHT22;392;48.838;2.322;2023-11-22T04:15:09;10.00;47.60
820;DHT22;392;48.838;2.322;2023-11-22T04:17:37;10.00;47.20
820;DHT22;392;48.838;2.322;2023-11-22T04:20:05;9.90;47.70
820;DHT22;392;48.838;2.322;2023-11-22T04:22:35;9.90;47.50
820;DHT22;392;48.838;2.322;2023-11-22T04:25:05;9.80;47.30
820;DHT22;392;48.838;2.322;2023-11-22T04:27:34;9.80;48.00
820;DHT22;392;48.838;2.322;2023-11-22T04:30:01;9.80;48.60
820;DHT22;392;48.838;2.322;2023-11-22T04:32:28;9.70;48.60
820;DHT22;392;48.838;2.322;2023-11-22T04:34:55;9.70;48.40
820;DHT22;392;48.838;2.322;2023-11-22T04:37:24;9.70;48.20
820;DHT22;392;48.838;2.322;2023-11-22T04:39:52;9.60;48.30
820;DHT22;392;48.838;2.322;2023-11-22T04:42:20;9.60;48.30
820;DHT22;392;48.838;2.322;2023-11-22T04:44:48;9.50;48.30
820;DHT22;392;48.838;2.322;2023-11-22T04:47:15;9.50;49.30
820;DHT22;392;48.838;2.322;2023-11-22T04:49:42;9.50;49.20
820;DHT22;392;48.838;2.322;2023-11-22T04:52:10;9.40;48.90
820;DHT22;392;48.838;2.322;2023-11-22T04:54:38;9.30;49.20
820;DHT22;392;48.838;2.322;2023-11-22T04:57:05;9.20;49.30
820;DHT22;392;48.838;2.322;2023-11-22T04:59:33;9.20;49.90
820;DHT22;392;48.838;2.322;2023-11-22T05:02:01;9.20;49.40
820;DHT22;392;48.838;2.322;2023-11-22T05:04:28;9.20;49.40
820;DHT22;392;48.838;2.322;2023-11-22T05:06:56;9.20;49.40
820;DHT22;392;48.838;2.322;2023-11-22T05:09:23;9.20;49.10
820;DHT22;392;48.838;2.322;2023-11-22T05:11:50;9.10;50.30
820;DHT22;392;48.838;2.322;2023-11-22T05:14:18;9.10;49.80
820;DHT22;392;48.838;2.322;2023-11-22T05:16:47;9.10;50.20
820;DHT22;392;48.838;2.322;2023-11-22T05:19:14;9.00;50.60
820;DHT22;392;48.838;2.322;2023-11-22T05:21:42;9.10;52.00
820;DHT22;392;48.838;2.322;2023-11-22T05:24:09;9.10;51.10
820;DHT22;392;48.838;2.322;2023-11-22T05:26:36;9.10;50.00
820;DHT22;392;48.838;2.322;2023-11-22T05:29:04;9.10;49.50
820;DHT22;392;48.838;2.322;2023-11-22T05:31:31;9.00;49.50
820;DHT22;392;48.838;2.322;2023-11-22T05:34:00;9.00;49.10
820;DHT22;392;48.838;2.322;2023-11-22T05:36:27;9.00;48.90
820;DHT22;392;48.838;2.322;2023-11-22T05:38:55;9.00;48.90
820;DHT22;392;48.838;2.322;2023-11-22T05:41:24;8.90;48.80
820;DHT22;392;48.838;2.322;2023-11-22T05:43:52;8.90;48.90
820;DHT22;392;48.838;2.322;2023-11-22T05:46:20;8.80;48.70
820;DHT22;392;48.838;2.322;2023-11-22T05:48:48;8.80;48.20
820;DHT22;392;48.838;2.322;2023-11-22T05:51:18;8.70;48.60
820;DHT22;392;48.838;2.322;2023-11-22T05:53:46;8.60;48.60
820;DHT22;392;48.838;2.322;2023-11-22T05:56:13;8.70;48.70
820;DHT22;392;48.838;2.322;2023-11-22T05:58:42;8.70;48.50
820;DHT22;392;48.838;2.322;2023-11-22T06:01:10;8.70;47.00
820;DHT22;392;48.838;2.322;2023-11-22T06:03:38;8.70;46.00
820;DHT22;392;48.838;2.322;2023-11-22T06:06:06;8.70;45.60
820;DHT22;392;48.838;2.322;2023-11-22T06:08:35;8.70;45.10
820;DHT22;392;48.838;2.322;2023-11-22T06:11:03;8.70;44.30
820;DHT22;392;48.838;2.322;2023-11-22T06:13:30;8.70;43.00
820;DHT22;392;48.838;2.322;2023-11-22T06:15:57;8.70;43.10
820;DHT22;392;48.838;2.322;2023-11-22T06:18:25;8.70;42.20
820;DHT22;392;48.838;2.322;2023-11-22T06:20:55;8.70;41.50
820;DHT22;392;48.838;2.322;2023-11-22T06:23:23;8.70;41.40
820;DHT22;392;48.838;2.322;2023-11-22T06:25:51;8.70;41.50
820;DHT22;392;48.838;2.322;2023-11-22T06:28:18;8.70;41.30
820;DHT22;392;48.838;2.322;2023-11-22T06:30:46;8.70;41.40
820;DHT22;392;48.838;2.322;2023-11-22T06:33:13;8.60;41.70
820;DHT22;392;48.838;2.322;2023-11-22T06:35:41;8.60;42.10
820;DHT22;392;48.838;2.322;2023-11-22T06:38:08;8.60;42.70
820;DHT22;392;48.838;2.322;2023-11-22T06:40:36;8.60;43.40
820;DHT22;392;48.838;2.322;2023-11-22T06:43:04;8.60;43.70
820;DHT22;392;48.838;2.322;2023-11-22T06:45:32;8.50;43.70
820;DHT22;392;48.838;2.322;2023-11-22T06:48:00;8.50;43.90
820;DHT22;392;48.838;2.322;2023-11-22T06:50:28;8.50;44.60
820;DHT22;392;48.838;2.322;2023-11-22T06:52:56;8.50;45.30
820;DHT22;392;48.838;2.322;2023-11-22T06:55:23;8.50;45.80
820;DHT22;392;48.838;2.322;2023-11-22T06:57:51;8.50;45.70
820;DHT22;392;48.838;2.322;2023-11-22T07:00:21;8.70;45.70
820;DHT22;392;48.838;2.322;2023-11-22T07:02:48;8.50;45.70
820;DHT22;392;48.838;2.322;2023-11-22T07:05:15;8.50;45.90
820;DHT22;392;48.838;2.322;2023-11-22T07:07:42;8.60;46.30
820;DHT22;392;48.838;2.322;2023-11-22T07:10:10;8.60;46.50
820;DHT22;392;48.838;2.322;2023-11-22T07:12:39;8.60;47.10
820;DHT22;392;48.838;2.322;2023-11-22T07:15:09;8.70;47.60
820;DHT22;392;48.838;2.322;2023-11-22T07:17:38;8.70;47.30
820;DHT22;392;48.838;2.322;2023-11-22T07:20:06;8.70;46.60
820;DHT22;392;48.838;2.322;2023-11-22T07:22:38;8.70;46.40
820;DHT22;392;48.838;2.322;2023-11-22T07:25:08;8.60;46.60
820;DHT22;392;48.838;2.322;2023-11-22T07:27:44;8.70;46.70
820;DHT22;392;48.838;2.322;2023-11-22T07:30:13;8.60;46.30
820;DHT22;392;48.838;2.322;2023-11-22T07:32:42;8.60;46.30
820;DHT22;392;48.838;2.322;2023-11-22T07:35:10;8.60;46.00
820;DHT22;392;48.838;2.322;2023-11-22T07:37:38;8.50;46.20
820;DHT22;392;48.838;2.322;2023-11-22T07:40:08;8.50;46.90
820;DHT22;392;48.838;2.322;2023-11-22T07:42:39;8.50;47.20
820;DHT22;392;48.838;2.322;2023-11-22T07:45:07;8.40;47.60
820;DHT22;392;48.838;2.322;2023-11-22T07:47:37;8.50;47.80
820;DHT22;392;48.838;2.322;2023-11-22T07:50:10;8.50;47.80
820;DHT22;392;48.838;2.322;2023-11-22T07:52:38;8.50;48.30
820;DHT22;392;48.838;2.322;2023-11-22T07:55:07;8.50;48.50
820;DHT22;392;48.838;2.322;2023-11-22T07:57:35;8.60;48.60
820;DHT22;392;48.838;2.322;2023-11-22T08:00:05;8.70;48.70
820;DHT22;392;48.838;2.322;2023-11-22T08:02:39;8.80;48.40
820;DHT22;392;48.838;2.322;2023-11-22T08:05:10;8.80;47.80
820;DHT22;392;48.838;2.322;2023-11-22T08:07:38;8.80;47.20
820;DHT22;392;48.838;2.322;2023-11-22T08:10:08;8.70;46.50
820;DHT22;392;48.838;2.322;2023-11-22T08:12:42;8.70;47.00
820;DHT22;392;48.838;2.322;2023-11-22T08:15:10;8.60;46.90
820;DHT22;392;48.838;2.322;2023-11-22T08:17:38;8.60;47.30
820;DHT22;392;48.838;2.322;2023-11-22T08:20:07;8.50;47.70
820;DHT22;392;48.838;2.322;2023-11-22T08:22:39;8.50;47.90
820;DHT22;392;48.838;2.322;2023-11-22T08:25:08;8.40;48.40
820;DHT22;392;48.838;2.322;2023-11-22T08:27:38;8.30;48.30
820;DHT22;392;48.838;2.322;2023-11-22T08:30:07;8.30;49.50
820;DHT22;392;48.838;2.322;2023-11-22T08:32:42;8.30;49.90
820;DHT22;392;48.838;2.322;2023-11-22T08:35:10;8.30;50.30
820;DHT22;392;48.838;2.322;2023-11-22T08:37:41;8.30;49.90
820;DHT22;392;48.838;2.322;2023-11-22T08:40:09;8.40;50.10
820;DHT22;392;48.838;2.322;2023-11-22T08:42:40;8.50;48.40
820;DHT22;392;48.838;2.322;2023-11-22T08:45:08;8.50;48.90
820;DHT22;392;48.838;2.322;2023-11-22T08:47:38;8.50;48.50
820;DHT22;392;48.838;2.322;2023-11-22T08:50:07;8.40;48.00
820;DHT22;392;48.838;2.322;2023-11-22T08:52:37;8.40;48.40
820;DHT22;392;48.838;2.322;2023-11-22T08:55:07;8.40;48.20
820;DHT22;392;48.838;2.322;2023-11-22T08:57:35;8.40;48.40
820;DHT22;392;48.838;2.322;2023-11-22T09:00:03;8.40;48.40
820;DHT22;392;48.838;2.322;2023-11-22T09:02:34;8.50;48.50
820;DHT22;392;48.838;2.322;2023-11-22T09:05:02;8.50;48.50
820;DHT22;392;48.838;2.322;2023-11-22T09:07:32;8.60;48.00
820;DHT22;392;48.838;2.322;2023-11-22T09:10:02;8.60;47.60
820;DHT22;392;48.838;2.322;2023-11-22T09:12:36;8.60;46.80
820;DHT22;392;48.838;2.322;2023-11-22T09:15:06;8.70;46.10
820;DHT22;392;48.838;2.322;2023-11-22T09:17:36;8.70;46.10
820;DHT22;392;48.838;2.322;2023-11-22T09:20:09;8.70;45.80
820;DHT22;392;48.838;2.322;2023-11-22T09:22:41;8.70;45.40
820;DHT22;392;48.838;2.322;2023-11-22T09:25:15;8.60;45.20
820;DHT22;392;48.838;2.322;2023-11-22T09:27:45;8.70;45.60
820;DHT22;392;48.838;2.322;2023-11-22T09:30:14;8.70;45.40
820;DHT22;392;48.838;2.322;2023-11-22T09:32:58;8.70;45.10
820;DHT22;392;48.838;2.322;2023-11-22T09:35:25;8.70;44.90
820;DHT22;392;48.838;2.322;2023-11-22T09:37:54;8.70;44.00
820;DHT22;392;48.838;2.322;2023-11-22T09:40:23;8.70;44.50
820;DHT22;392;48.838;2.322;2023-11-22T09:42:50;8.80;45.00
820;DHT22;392;48.838;2.322;2023-11-22T09:45:19;8.80;44.50
820;DHT22;392;48.838;2.322;2023-11-22T09:47:47;8.80;44.10
820;DHT22;392;48.838;2.322;2023-11-22T09:50:17;8.80;43.90
820;DHT22;392;48.838;2.322;2023-11-22T09:52:50;8.90;43.90
820;DHT22;392;48.838;2.322;2023-11-22T09:55:20;8.90;43.90
820;DHT22;392;48.838;2.322;2023-11-22T09:57:49;9.00;43.30
820;DHT22;392;48.838;2.322;2023-11-22T10:00:19;9.10;42.80
820;DHT22;392;48.838;2.322;2023-11-22T10:02:47;9.10;41.80
820;DHT22;392;48.838;2.322;2023-11-22T10:05:15;9.10;41.30
820;DHT22;392;48.838;2.322;2023-11-22T10:07:42;9.20;41.10
820;DHT22;392;48.838;2.322;2023-11-22T10:10:14;9.20;41.10
820;DHT22;392;48.838;2.322;2023-11-22T10:12:45;9.30;41.10
820;DHT22;392;48.838;2.322;2023-11-22T10:15:13;9.40;40.30
820;DHT22;392;48.838;2.322;2023-11-22T10:17:47;9.40;39.50
820;DHT22;392;48.838;2.322;2023-11-22T10:20:23;9.50;39.70
820;DHT22;392;48.838;2.322;2023-11-22T10:22:51;9.50;39.50
820;DHT22;392;48.838;2.322;2023-11-22T10:25:20;9.60;38.90
820;DHT22;392;48.838;2.322;2023-11-22T10:27:50;9.60;38.80
820;DHT22;392;48.838;2.322;2023-11-22T10:30:17;9.60;37.90
820;DHT22;392;48.838;2.322;2023-11-22T10:32:45;9.50;37.80
820;DHT22;392;48.838;2.322;2023-11-22T10:35:13;9.60;38.40
820;DHT22;392;48.838;2.322;2023-11-22T10:37:42;9.70;38.60
820;DHT22;392;48.838;2.322;2023-11-22T10:40:12;9.80;38.00
820;DHT22;392;48.838;2.322;2023-11-22T10:42:41;9.80;37.40
820;DHT22;392;48.838;2.322;2023-11-22T10:45:10;9.80;37.50
820;DHT22;392;48.838;2.322;2023-11-22T10:47:39;9.90;37.10
820;DHT22;392;48.838;2.322;2023-11-22T10:50:09;9.80;36.00
820;DHT22;392;48.838;2.322;2023-11-22T10:52:41;9.90;36.60
820;DHT22;392;48.838;2.322;2023-11-22T10:55:11;10.00;35.30
820;DHT22;392;48.838;2.322;2023-11-22T10:57:45;10.10;34.10
820;DHT22;392;48.838;2.322;2023-11-22T11:00:16;10.10;33.20
820;DHT22;392;48.838;2.322;2023-11-22T11:02:51;10.20;32.60
820;DHT22;392;48.838;2.322;2023-11-22T11:05:28;10.30;32.00
820;DHT22;392;48.838;2.322;2023-11-22T11:08:01;10.20;31.30
820;DHT22;392;48.838;2.322;2023-11-22T11:10:38;11.70;32.90
820;DHT22;392;48.838;2.322;2023-11-22T11:13:06;10.30;30.60
820;DHT22;392;48.838;2.322;2023-11-22T11:15:36;10.40;30.20
820;DHT22;392;48.838;2.322;2023-11-22T11:18:05;10.40;29.50
820;DHT22;392;48.838;2.322;2023-11-22T11:20:33;10.50;29.50
820;DHT22;392;48.838;2.322;2023-11-22T11:23:13;10.60;29.60
820;DHT22;392;48.838;2.322;2023-11-22T11:25:41;10.70;29.50
820;DHT22;392;48.838;2.322;2023-11-22T11:28:10;10.80;29.10
820;DHT22;392;48.838;2.322;2023-11-22T11:30:55;10.80;28.60
820;DHT22;392;48.838;2.322;2023-11-22T11:33:27;10.80;27.90
820;DHT22;392;48.838;2.322;2023-11-22T11:36:02;10.90;27.80
820;DHT22;392;48.838;2.322;2023-11-22T11:38:31;11.00;26.90
820;DHT22;392;48.838;2.322;2023-11-22T11:41:06;11.00;25.90
820;DHT22;392;48.838;2.322;2023-11-22T11:43:39;11.10;25.00
820;DHT22;392;48.838;2.322;2023-11-22T11:46:09;11.00;23.80
820;DHT22;392;48.838;2.322;2023-11-22T11:48:37;11.00;23.20
820;DHT22;392;48.838;2.322;2023-11-22T11:51:04;11.00;23.00
820;DHT22;392;48.838;2.322;2023-11-22T11:53:32;11.10;22.50
820;DHT22;392;48.838;2.322;2023-11-22T11:56:01;11.00;21.80
820;DHT22;392;48.838;2.322;2023-11-22T11:58:28;11.00;21.80
820;DHT22;392;48.838;2.322;2023-11-22T12:00:55;10.90;21.70
820;DHT22;392;48.838;2.322;2023-11-22T12:03:24;10.90;21.20
820;DHT22;392;48.838;2.322;2023-11-22T12:05:51;10.90;21.60
820;DHT22;392;48.838;2.322;2023-11-22T12:08:19;10.90;21.70
820;DHT22;392;48.838;2.322;2023-11-22T12:10:46;11.00;22.00
820;DHT22;392;48.838;2.322;2023-11-22T12:13:17;11.00;22.00
820;DHT22;392;48.838;2.322;2023-11-22T12:15:45;11.00;21.70
820;DHT22;392;48.838;2.322;2023-11-22T12:18:13;11.10;20.60
820;DHT22;392;48.838;2.322;2023-11-22T12:20:54;11.10;19.80
820;DHT22;392;48.838;2.322;2023-11-22T12:23:22;11.20;17.80
820;DHT22;392;48.838;2.322;2023-11-22T12:25:54;11.20;17.80
820;DHT22;392;48.838;2.322;2023-11-22T12:28:23;11.10;18.00
820;DHT22;392;48.838;2.322;2023-11-22T12:30:51;11.10;18.20
820;DHT22;392;48.838;2.322;2023-11-22T12:33:19;11.20;17.90
820;DHT22;392;48.838;2.322;2023-11-22T12:35:48;11.20;17.20
820;DHT22;392;48.838;2.322;2023-11-22T12:38:15;11.20;17.20
820;DHT22;392;48.838;2.322;2023-11-22T12:40:44;11.20;16.90
820;DHT22;392;48.838;2.322;2023-11-22T12:43:13;11.20;17.40
820;DHT22;392;48.838;2.322;2023-11-22T12:45:41;11.20;17.80
820;DHT22;392;48.838;2.322;2023-11-22T12:48:21;11.30;17.90
820;DHT22;392;48.838;2.322;2023-11-22T12:50:51;11.40;18.10
820;DHT22;392;48.838;2.322;2023-11-22T12:53:19;11.50;18.40
820;DHT22;392;48.838;2.322;2023-11-22T12:55:49;11.50;17.70
820;DHT22;392;48.838;2.322;2023-11-22T12:58:18;11.50;17.80
820;DHT22;392;48.838;2.322;2023-11-22T13:00:46;11.50;18.00
820;DHT22;392;48.838;2.322;2023-11-22T13:03:15;11.60;17.60
820;DHT22;392;48.838;2.322;2023-11-22T13:05:44;11.70;17.40
820;DHT22;392;48.838;2.322;2023-11-22T13:08:13;11.70;16.90
820;DHT22;392;48.838;2.322;2023-11-22T13:10:43;11.70;16.70
820;DHT22;392;48.838;2.322;2023-11-22T13:13:12;11.70;16.70
820;DHT22;392;48.838;2.322;2023-11-22T13:15:40;11.70;16.40
820;DHT22;392;48.838;2.322;2023-11-22T13:18:07;11.60;16.00
820;DHT22;392;48.838;2.322;2023-11-22T13:20:35;11.60;15.90
820;DHT22;392;48.838;2.322;2023-11-22T13:23:04;11.50;16.10
820;DHT22;392;48.838;2.322;2023-11-22T13:25:33;11.50;16.30
820;DHT22;392;48.838;2.322;2023-11-22T13:28:00;11.50;16.10
820;DHT22;392;48.838;2.322;2023-11-22T13:30:28;11.50;16.00
820;DHT22;392;48.838;2.322;2023-11-22T13:32:55;11.50;16.60
820;DHT22;392;48.838;2.322;2023-11-22T13:35:23;11.60;17.30
820;DHT22;392;48.838;2.322;2023-11-22T13:37:51;11.80;17.60
820;DHT22;392;48.838;2.322;2023-11-22T13:40:19;12.30;17.30
820;DHT22;392;48.838;2.322;2023-11-22T13:42:50;12.80;16.30
820;DHT22;392;48.838;2.322;2023-11-22T13:45:19;13.30;15.10
820;DHT22;392;48.838;2.322;2023-11-22T13:47:48;13.90;14.80
820;DHT22;392;48.838;2.322;2023-11-22T13:50:17;14.70;14.40
820;DHT22;392;48.838;2.322;2023-11-22T13:52:47;15.60;12.90
820;DHT22;392;48.838;2.322;2023-11-22T13:55:15;16.20;11.40
820;DHT22;392;48.838;2.322;2023-11-22T13:57:45;16.40;10.90
820;DHT22;392;48.838;2.322;2023-11-22T14:00:15;16.30;10.30
820;DHT22;392;48.838;2.322;2023-11-22T14:02:45;15.90;10.40
820;DHT22;392;48.838;2.322;2023-11-22T14:05:13;15.40;10.70
820;DHT22;392;48.838;2.322;2023-11-22T14:07:41;15.00;11.20
820;DHT22;392;48.838;2.322;2023-11-22T14:10:09;14.70;11.70
820;DHT22;392;48.838;2.322;2023-11-22T14:12:37;14.30;11.60
820;DHT22;392;48.838;2.322;2023-11-22T14:15:05;14.00;12.40
820;DHT22;392;48.838;2.322;2023-11-22T14:17:34;13.80;12.80
820;DHT22;392;48.838;2.322;2023-11-22T14:20:05;13.70;13.10
820;DHT22;392;48.838;2.322;2023-11-22T14:22:35;13.60;12.70
820;DHT22;392;48.838;2.322;2023-11-22T14:25:02;13.40;12.90
820;DHT22;392;48.838;2.322;2023-11-22T14:27:33;13.30;12.70
820;DHT22;392;48.838;2.322;2023-11-22T14:30:00;13.10;12.50
820;DHT22;392;48.838;2.322;2023-11-22T14:32:34;13.00;13.50
820;DHT22;392;48.838;2.322;2023-11-22T14:35:01;12.90;13.50
820;DHT22;392;48.838;2.322;2023-11-22T14:37:29;12.90;13.70
820;DHT22;392;48.838;2.322;2023-11-22T14:39:57;12.80;13.50
820;DHT22;392;48.838;2.322;2023-11-22T14:42:24;12.80;13.50
820;DHT22;392;48.838;2.322;2023-11-22T14:44:52;12.70;13.30
820;DHT22;392;48.838;2.322;2023-11-22T14:47:20;12.50;13.40
820;DHT22;392;48.838;2.322;2023-11-22T14:49:51;12.40;13.20
820;DHT22;392;48.838;2.322;2023-11-22T14:52:19;12.40;13.50
820;DHT22;392;48.838;2.322;2023-11-22T14:54:47;12.20;13.30
820;DHT22;392;48.838;2.322;2023-11-22T14:57:15;12.10;13.30
820;DHT22;392;48.838;2.322;2023-11-22T14:59:43;12.00;13.50
820;DHT22;392;48.838;2.322;2023-11-22T15:02:10;12.00;13.60
820;DHT22;392;48.838;2.322;2023-11-22T15:04:37;11.90;13.50
820;DHT22;392;48.838;2.322;2023-11-22T15:07:06;11.90;13.90
820;DHT22;392;48.838;2.322;2023-11-22T15:09:33;11.80;14.10
820;DHT22;392;48.838;2.322;2023-11-22T15:12:00;11.90;14.10
820;DHT22;392;48.838;2.322;2023-11-22T15:14:29;11.90;14.50
820;DHT22;392;48.838;2.322;2023-11-22T15:16:57;11.90;14.90
820;DHT22;392;48.838;2.322;2023-11-22T15:19:27;11.90;15.00
820;DHT22;392;48.838;2.322;2023-11-22T15:21:54;11.90;15.30
820;DHT22;392;48.838;2.322;2023-11-22T15:24:23;11.90;15.40
820;DHT22;392;48.838;2.322;2023-11-22T15:26:50;11.90;15.60
820;DHT22;392;48.838;2.322;2023-11-22T15:29:17;11.90;15.80
820;DHT22;392;48.838;2.322;2023-11-22T15:31:44;11.90;15.90
820;DHT22;392;48.838;2.322;2023-11-22T15:34:11;11.90;15.70
820;DHT22;392;48.838;2.322;2023-11-22T15:36:39;11.80;15.10
820;DHT22;392;48.838;2.322;2023-11-22T15:39:07;11.80;15.00
820;DHT22;392;48.838;2.322;2023-11-22T15:41:39;11.70;15.00
820;DHT22;392;48.838;2.322;2023-11-22T15:44:06;11.70;15.30
820;DHT22;392;48.838;2.322;2023-11-22T15:46:33;11.70;15.70
820;DHT22;392;48.838;2.322;2023-11-22T15:49:00;11.60;15.70
820;DHT22;392;48.838;2.322;2023-11-22T15:51:29;11.60;16.20
820;DHT22;392;48.838;2.322;2023-11-22T15:53:56;11.60;16.60
820;DHT22;392;48.838;2.322;2023-11-22T15:56:24;11.50;17.10
820;DHT22;392;48.838;2.322;2023-11-22T15:58:53;11.40;17.40
820;DHT22;392;48.838;2.322;2023-11-22T16:01:24;11.30;17.80
820;DHT22;392;48.838;2.322;2023-11-22T16:03:52;11.30;17.90
820;DHT22;392;48.838;2.322;2023-11-22T16:06:20;11.30;17.90
820;DHT22;392;48.838;2.322;2023-11-22T16:08:48;11.30;18.20
820;DHT22;392;48.838;2.322;2023-11-22T16:11:15;11.30;18.50
820;DHT22;392;48.838;2.322;2023-11-22T16:13:43;11.30;18.30
820;DHT22;392;48.838;2.322;2023-11-22T16:16:12;11.30;18.30
820;DHT22;392;48.838;2.322;2023-11-22T16:18:39;11.30;18.10
820;DHT22;392;48.838;2.322;2023-11-22T16:21:06;11.30;18.70
820;DHT22;392;48.838;2.322;2023-11-22T16:23:36;11.30;18.70
820;DHT22;392;48.838;2.322;2023-11-22T16:26:04;11.30;18.70
820;DHT22;392;48.838;2.322;2023-11-22T16:28:31;11.30;18.90
820;DHT22;392;48.838;2.322;2023-11-22T16:31:00;11.20;18.80
820;DHT22;392;48.838;2.322;2023-11-22T16:33:29;11.20;18.90
820;DHT22;392;48.838;2.322;2023-11-22T16:35:57;11.20;19.00
820;DHT22;392;48.838;2.322;2023-11-22T16:38:24;11.10;19.10
820;DHT22;392;48.838;2.322;2023-11-22T16:40:51;11.10;19.30
820;DHT22;392;48.838;2.322;2023-11-22T16:43:19;11.10;19.40
820;DHT22;392;48.838;2.322;2023-11-22T16:45:47;11.10;19.50
820;DHT22;392;48.838;2.322;2023-11-22T16:48:15;11.10;19.70
820;DHT22;392;48.838;2.322;2023-11-22T16:50:43;11.10;19.80